Terminal Aerodrome Forecast
Issued by NWS

Home | Current Version | Previous Version | Text Only | Print | Product List | Glossary On
Versions: 1 2 3 4 5 6 7 8 9 10 11 12 13 14 15 16 17 18 19 20 21 22 23 24 25 26 27 28 29 30 31 32 33 34 35 36 37 38 39 40 41 42 43 44 45 46 47 48 49 50
000
FTUS45 KGJT 182342
TAFEGE
TAF
KEGE 182342Z 1900/1924 00000KT P6SM VCSH FEW010 OVC025
      TEMPO 1900/1903 3SM -SN BR SCT005 OVC012
     FM190600 VRB03KT P6SM VCSH SCT025 OVC040
     FM191000 VRB03KT P6SM VCFG SCT008 OVC025
     FM192000 27008KT P6SM BKN050
      AMD LTD TO CLD VIS AND WIND 1902/1913=

USA.gov is the U.S. government's official web portal to all federal, state and local government web resources and services.